Archiv-/Tagesdaten

--Timestamp---	Temp	Chill	HIndex	Humid	Dewpt	 Wind 	HiWind	WindDir	Rain 	Barom	Solar	 ET  	 UV 
--------------	----	-----	------	-----	-----	------	------	-------	-----	-----	-----	-----	----
20091114 00:00	5.6	5.6	5.6	88	3.8	2	5	248	0.0	1016.2	0	0.000	0.0
20091114 00:05	5.6	5.6	5.6	89	3.9	2	6	248	0.0	1016.0	0	0.000	0.0
20091114 00:10	5.4	5.4	5.4	89	3.8	0	0	-100000	0.0	1016.0	0	0.000	0.0
20091114 00:15	5.3	5.3	5.3	89	3.7	0	0	-100000	0.0	1016.0	0	0.000	0.0
20091114 00:20	5.2	5.2	5.2	89	3.6	0	0	-100000	0.0	1016.0	0	0.000	0.0
20091114 00:25	5.1	5.1	5.1	89	3.4	0	3	248	0.0	1015.9	0	0.000	0.0
20091114 00:30	5.1	5.1	5.1	90	3.6	3	5	248	0.0	1016.0	0	0.000	0.0
20091114 00:35	5.1	5.1	5.1	90	3.6	0	3	248	0.0	1015.9	0	0.000	0.0
20091114 00:40	5.0	5.0	5.0	90	3.5	0	0	-100000	0.0	1015.9	0	0.000	0.0
20091114 00:45	4.9	4.9	4.9	90	3.4	0	0	-100000	0.0	1015.8	0	0.000	0.0
20091114 00:50	4.8	4.8	4.8	90	3.3	0	2	248	0.0	1015.8	0	0.000	0.0
20091114 00:55	4.7	4.7	4.7	90	3.2	0	3	248	0.0	1015.9	0	0.000	0.0
20091114 01:00	4.6	4.6	4.6	90	3.1	2	5	248	0.0	1015.8	0	0.000	0.0
20091114 01:05	4.8	4.8	4.8	91	3.4	3	5	248	0.0	1015.8	0	0.000	0.0
20091114 01:10	4.8	4.8	4.8	91	3.5	3	5	248	0.0	1015.7	0	0.000	0.0
20091114 01:15	4.8	4.8	4.8	91	3.5	3	6	180	0.0	1015.6	0	0.000	0.0
20091114 01:20	4.8	4.8	4.8	91	3.5	3	6	158	0.0	1015.6	0	0.000	0.0
20091114 01:25	5.0	5.0	5.0	91	3.7	5	8	158	0.0	1015.5	0	0.000	0.0
20091114 01:30	5.2	5.2	5.2	91	3.8	3	6	158	0.0	1015.4	0	0.000	0.0
20091114 01:35	5.2	5.2	5.2	91	3.8	5	8	158	0.0	1015.3	0	0.000	0.0
20091114 01:40	5.2	5.2	5.2	91	3.8	3	6	158	0.0	1015.3	0	0.000	0.0
20091114 01:45	5.2	5.2	5.2	90	3.7	3	6	180	0.0	1015.3	0	0.000	0.0
20091114 01:50	5.1	5.1	5.1	90	3.6	3	6	180	0.0	1015.4	0	0.000	0.0
20091114 01:55	5.1	5.1	5.1	89	3.4	2	3	180	0.0	1015.4	0	0.000	0.0
20091114 02:00	4.9	4.9	4.9	89	3.3	0	3	180	0.0	1015.4	0	0.000	0.0
20091114 02:05	4.8	4.8	4.8	89	3.2	2	5	180	0.0	1015.5	0	0.000	0.0
20091114 02:10	4.8	4.8	4.8	89	3.1	2	3	180	0.0	1015.5	0	0.000	0.0
20091114 02:15	4.7	4.7	4.7	89	3.0	2	5	180	0.0	1015.4	0	0.000	0.0
20091114 02:20	4.6	4.6	4.6	89	3.0	3	6	180	0.0	1015.4	0	0.000	0.0
20091114 02:25	4.7	4.7	4.7	90	3.2	5	6	180	0.0	1015.4	0	0.000	0.0
20091114 02:30	4.7	4.7	4.7	90	3.2	5	8	180	0.0	1015.2	0	0.000	0.0
20091114 02:35	4.7	4.7	4.7	90	3.2	3	6	158	0.0	1015.0	0	0.000	0.0
20091114 02:40	4.7	4.7	4.7	90	3.2	3	6	158	0.0	1015.1	0	0.000	0.0
20091114 02:45	4.6	4.6	4.6	90	3.1	3	6	158	0.0	1015.0	0	0.000	0.0
20091114 02:50	4.7	4.7	4.7	89	3.0	3	6	158	0.0	1014.9	0	0.000	0.0
20091114 02:55	4.6	4.6	4.6	89	3.0	3	6	158	0.0	1014.8	0	0.000	0.0
20091114 03:00	4.6	4.6	4.6	89	2.9	2	5	158	0.0	1014.8	0	0.000	0.0
20091114 03:05	4.4	4.4	4.4	89	2.8	3	6	158	0.0	1014.9	0	0.000	0.0
20091114 03:10	4.4	4.4	4.4	89	2.7	3	6	158	0.0	1014.8	0	0.000	0.0
20091114 03:15	4.4	4.4	4.4	89	2.7	2	5	158	0.0	1014.7	0	0.000	0.0
20091114 03:20	4.3	4.3	4.3	89	2.7	2	5	158	0.0	1014.7	0	0.000	0.0
20091114 03:25	4.3	4.3	4.3	89	2.6	3	6	158	0.0	1014.6	0	0.000	0.0
20091114 03:30	4.2	4.2	4.2	90	2.7	2	8	135	0.0	1014.5	0	0.000	0.0
20091114 03:35	4.2	4.2	4.2	90	2.7	2	5	135	0.0	1014.6	0	0.000	0.0
20091114 03:40	4.2	4.2	4.2	90	2.7	2	6	135	0.0	1014.6	0	0.000	0.0
20091114 03:45	4.1	4.1	4.1	90	2.6	3	6	135	0.0	1014.6	0	0.000	0.0
20091114 03:50	4.2	4.2	4.2	90	2.7	3	8	158	0.0	1014.5	0	0.000	0.0
20091114 03:55	4.2	4.2	4.2	90	2.7	3	8	158	0.0	1014.4	0	0.000	0.0
20091114 04:00	4.2	4.2	4.2	90	2.7	3	10	158	0.0	1014.4	0	0.000	0.0
20091114 04:05	4.2	4.2	4.2	90	2.7	3	6	158	0.0	1014.8	0	0.000	0.0
20091114 04:10	4.3	4.3	4.3	90	2.8	3	5	158	0.0	1014.7	0	0.000	0.0
20091114 04:15	4.3	4.3	4.3	89	2.7	5	6	158	0.0	1014.6	0	0.000	0.0
20091114 04:20	4.4	4.4	4.4	89	2.7	5	8	180	0.0	1014.5	0	0.000	0.0
20091114 04:25	4.4	2.9	4.4	89	2.7	6	10	180	0.0	1014.5	0	0.000	0.0
20091114 04:30	4.3	4.3	4.3	88	2.5	3	8	180	0.0	1014.5	0	0.000	0.0
20091114 04:35	4.3	4.3	4.3	88	2.5	2	5	180	0.0	1014.4	0	0.000	0.0
20091114 04:40	4.2	4.2	4.2	88	2.4	2	6	180	0.0	1014.5	0	0.000	0.0
20091114 04:45	4.1	4.1	4.1	88	2.3	0	3	180	0.0	1014.4	0	0.000	0.0
20091114 04:50	4.0	4.0	4.0	88	2.2	0	0	-100000	0.0	1014.4	0	0.000	0.0
20091114 04:55	3.9	3.9	3.9	88	2.1	0	5	180	0.0	1014.3	0	0.000	0.0
20091114 05:00	3.7	3.7	3.7	88	1.9	2	5	180	0.0	1014.3	0	0.000	0.0
20091114 05:05	3.7	3.7	3.7	89	2.0	2	6	180	0.0	1014.3	0	0.000	0.0
20091114 05:10	3.6	3.6	3.6	89	2.0	0	3	180	0.0	1014.3	0	0.000	0.0
20091114 05:15	3.6	3.6	3.6	89	1.9	2	3	180	0.0	1014.4	0	0.000	0.0
20091114 05:20	3.4	3.4	3.4	89	1.8	0	5	180	0.0	1014.5	0	0.000	0.0
20091114 05:25	3.3	3.3	3.3	89	1.7	0	0	-100000	0.0	1014.5	0	0.000	0.0
20091114 05:30	3.1	3.1	3.1	89	1.5	0	0	-100000	0.0	1014.5	0	0.000	0.0
20091114 05:35	2.9	2.9	2.9	89	1.3	0	0	-100000	0.0	1014.4	0	0.000	0.0
20091114 05:40	2.8	2.8	2.8	89	1.1	0	3	180	0.0	1014.3	0	0.000	0.0
20091114 05:45	2.8	2.8	2.8	90	1.3	0	0	-100000	0.0	1014.3	0	0.000	0.0
20091114 05:50	2.7	2.7	2.7	90	1.2	0	0	-100000	0.0	1014.3	0	0.000	0.0
20091114 05:55	2.6	2.6	2.6	90	1.1	0	2	180	0.0	1014.3	0	0.000	0.0
20091114 06:00	2.4	2.4	2.4	90	1.0	0	2	180	0.0	1014.3	0	0.000	0.0
20091114 06:05	2.3	2.3	2.3	90	0.9	0	0	-100000	0.0	1014.3	0	0.000	0.0
20091114 06:10	2.3	2.3	2.3	90	0.8	3	6	180	0.0	1014.2	0	0.000	0.0
20091114 06:15	2.3	2.3	2.3	91	1.0	3	5	180	0.0	1014.3	0	0.000	0.0
20091114 06:20	2.6	2.6	2.6	92	1.4	3	6	180	0.0	1014.3	0	0.000	0.0
20091114 06:25	2.7	2.7	2.7	91	1.3	0	3	180	0.0	1014.2	0	0.000	0.0
20091114 06:30	2.6	2.6	2.6	91	1.3	0	0	-100000	0.0	1014.3	0	0.000	0.0
20091114 06:35	2.6	2.6	2.6	91	1.2	0	0	-100000	0.0	1014.4	0	0.000	0.0
20091114 06:40	2.4	2.4	2.4	91	1.1	0	0	-100000	0.0	1014.3	0	0.000	0.0
20091114 06:45	2.3	2.3	2.3	91	1.0	0	0	-100000	0.0	1014.3	0	0.000	0.0
20091114 06:50	2.2	2.2	2.2	91	0.9	0	0	-100000	0.0	1014.4	0	0.000	0.0
20091114 06:55	2.1	2.1	2.1	91	0.8	0	0	-100000	0.0	1014.4	0	0.000	0.0
20091114 07:00	2.2	2.2	2.2	91	0.9	0	0	-100000	0.0	1014.4	0	0.000	0.0
20091114 07:05	2.2	2.2	2.2	91	0.9	2	5	180	0.0	1014.5	0	0.000	0.0
20091114 07:10	2.1	2.1	2.1	91	0.8	0	2	180	0.0	1014.6	0	0.000	0.0
20091114 07:15	2.1	2.1	2.1	91	0.7	2	5	180	0.0	1014.5	0	0.000	0.0
20091114 07:20	2.0	2.0	2.0	91	0.7	3	6	180	0.0	1014.4	3	0.000	0.0
20091114 07:25	1.9	1.9	1.9	91	0.6	2	3	180	0.0	1014.4	6	0.000	0.0
20091114 07:30	1.8	1.8	1.8	91	0.5	0	5	180	0.0	1014.4	8	0.000	0.0
20091114 07:35	1.8	1.8	1.8	91	0.5	2	6	180	0.0	1014.3	11	0.000	0.0
20091114 07:40	1.8	1.8	1.8	92	0.7	3	6	180	0.0	1014.3	13	0.000	0.0
20091114 07:45	2.0	2.0	2.0	92	0.8	2	5	180	0.0	1014.3	16	0.000	0.0
20091114 07:50	2.2	2.2	2.2	92	1.0	0	5	180	0.0	1014.3	20	0.000	0.0
20091114 07:55	2.4	2.4	2.4	92	1.2	2	5	180	0.0	1014.4	24	0.000	0.0
20091114 08:00	2.6	2.6	2.6	92	1.4	2	5	180	0.0	1014.3	27	0.000	0.0
20091114 08:05	2.8	2.8	2.8	92	1.6	2	5	180	0.0	1014.4	29	0.000	0.0
20091114 08:10	2.9	2.9	2.9	92	1.8	2	6	180	0.0	1014.5	30	0.000	0.0
20091114 08:15	3.1	3.1	3.1	92	1.9	3	6	180	0.0	1014.4	32	0.000	0.0
20091114 08:20	3.3	3.3	3.3	92	2.1	2	5	180	0.0	1014.3	32	0.000	0.0
20091114 08:25	3.4	3.4	3.4	92	2.3	3	5	180	0.0	1014.4	35	0.000	0.0
20091114 08:30	3.7	3.7	3.7	91	2.3	3	6	180	0.0	1014.5	39	0.000	0.0
20091114 08:35	3.8	3.8	3.8	91	2.5	2	5	180	0.0	1014.5	41	0.000	0.0
20091114 08:40	4.0	4.0	4.0	90	2.5	2	6	180	0.0	1014.4	43	0.000	0.0
20091114 08:45	4.1	4.1	4.1	90	2.6	2	3	180	0.0	1014.3	45	0.000	0.0
20091114 08:50	4.2	4.2	4.2	90	2.7	0	0	-100000	0.0	1014.1	47	0.000	0.0
20091114 08:55	4.4	4.4	4.4	89	2.8	2	6	180	0.0	1013.9	49	0.000	0.0
20091114 09:00	4.7	4.7	4.7	88	2.9	3	8	180	0.0	1013.9	53	0.025	0.0
20091114 09:05	5.0	5.0	5.0	87	3.0	2	8	180	0.0	1013.9	57	0.000	0.0
20091114 09:10	5.3	5.3	5.3	87	3.3	5	10	135	0.0	1013.6	57	0.000	0.0
20091114 09:15	5.8	4.6	5.8	85	3.5	6	16	158	0.0	1013.4	57	0.000	0.0
20091114 09:20	6.2	4.9	6.2	84	3.7	6	14	135	0.0	1013.4	60	0.000	0.0
20091114 09:25	6.4	5.3	6.4	82	3.6	6	16	158	0.0	1013.4	64	0.000	0.3
20091114 09:30	6.7	6.7	6.7	81	3.7	5	10	158	0.0	1013.3	65	0.000	0.5
20091114 09:35	7.0	5.9	7.0	81	4.0	6	11	158	0.0	1013.2	66	0.000	0.5
20091114 09:40	7.3	6.3	7.3	79	3.9	6	13	158	0.0	1013.0	71	0.000	0.5
20091114 09:45	7.7	7.7	7.7	79	4.3	5	16	158	0.0	1013.0	82	0.000	0.6
20091114 09:50	8.0	6.7	8.0	77	4.2	8	14	158	0.0	1013.1	94	0.000	0.6
20091114 09:55	8.3	7.4	8.3	76	4.3	6	14	158	0.0	1013.0	105	0.000	0.6
20091114 10:00	8.6	7.4	8.6	75	4.4	8	16	158	0.0	1012.9	115	0.051	0.6
20091114 10:05	8.8	8.8	8.8	74	4.5	5	11	158	0.0	1012.9	124	0.000	0.7
20091114 10:10	9.0	9.0	9.0	73	4.4	5	11	158	0.0	1012.8	136	0.000	0.7
20091114 10:15	9.2	9.2	9.2	73	4.6	5	11	135	0.0	1012.8	149	0.000	0.7
20091114 10:20	9.3	9.3	9.3	72	4.5	3	11	135	0.0	1012.7	157	0.000	0.8
20091114 10:25	9.4	9.4	9.4	73	4.8	3	6	112	0.0	1012.6	162	0.000	0.8
20091114 10:30	9.5	9.5	9.5	73	4.9	3	8	135	0.0	1012.6	162	0.000	0.8
20091114 10:35	9.6	9.6	9.6	72	4.8	3	8	158	0.0	1012.7	162	0.000	0.9
20091114 10:40	9.7	9.7	9.7	72	4.9	3	10	135	0.0	1012.6	164	0.000	0.9
20091114 10:45	9.8	9.8	9.8	71	4.8	3	8	158	0.0	1012.6	172	0.000	0.9
20091114 10:50	9.9	9.9	9.9	71	4.9	2	6	135	0.0	1012.6	181	0.000	0.9
20091114 10:55	10.1	10.1	10.1	71	5.0	3	6	158	0.0	1012.4	174	0.000	0.9
20091114 11:00	10.2	10.2	10.2	70	4.9	3	10	135	0.0	1012.4	172	0.076	0.9
20091114 11:05	10.2	10.2	10.2	70	5.0	3	8	180	0.0	1012.3	171	0.000	0.9
20091114 11:10	10.2	10.2	10.2	71	5.2	0	3	180	0.0	1012.3	170	0.000	0.9
20091114 11:15	10.3	10.3	10.3	70	5.0	3	5	180	0.0	1012.3	166	0.000	0.9
20091114 11:20	10.3	10.3	10.3	70	5.0	2	5	180	0.0	1012.2	162	0.000	0.9
20091114 11:25	10.3	10.3	10.3	70	5.1	0	3	180	0.0	1012.2	161	0.000	0.8
20091114 11:30	10.4	10.4	10.4	70	5.2	0	2	180	0.0	1012.3	157	0.000	0.8
20091114 11:35	10.4	10.4	10.4	69	5.0	2	5	180	0.0	1012.3	151	0.000	0.8
20091114 11:40	10.5	10.5	10.5	69	5.1	0	2	180	0.0	1012.2	144	0.000	0.8
20091114 11:45	10.5	10.5	10.5	69	5.1	0	3	180	0.0	1012.2	136	0.000	0.8
20091114 11:50	10.6	10.6	10.6	68	4.9	0	0	-100000	0.0	1012.4	137	0.000	0.8
20091114 11:55	10.7	10.7	10.7	70	5.4	2	5	180	0.0	1012.5	144	0.000	0.8
20091114 12:00	10.8	10.8	10.8	71	5.7	3	6	225	0.0	1012.6	139	0.076	0.8
20091114 12:05	10.8	10.8	10.8	71	5.7	3	8	225	0.0	1012.7	122	0.000	0.7
20091114 12:10	10.7	10.7	10.7	70	5.4	3	6	292	0.0	1012.7	107	0.000	0.6
20091114 12:15	10.6	10.6	10.6	71	5.6	0	5	292	0.0	1012.6	104	0.000	0.6
20091114 12:20	10.6	10.6	10.6	72	5.8	0	0	-100000	0.0	1012.5	99	0.000	0.6
20091114 12:25	10.6	10.6	10.6	71	5.5	0	5	292	0.0	1012.4	87	0.000	0.5
20091114 12:30	10.4	10.4	10.4	72	5.6	2	5	292	0.0	1012.3	71	0.000	0.0
20091114 12:35	10.3	10.3	10.3	77	6.4	3	6	292	0.0	1012.3	65	0.000	0.0
20091114 12:40	9.9	9.9	9.9	80	6.7	3	6	0	0.0	1012.2	70	0.000	0.0
20091114 12:45	9.7	9.7	9.7	82	6.7	2	6	0	0.0	1012.4	81	0.000	0.1
20091114 12:50	9.5	9.5	9.5	83	6.8	3	6	338	0.0	1012.3	110	0.000	0.6
20091114 12:55	9.4	9.4	9.4	84	6.8	3	5	0	0.0	1012.4	143	0.000	0.8
20091114 13:00	9.3	9.3	9.3	84	6.8	5	10	0	0.0	1012.6	163	0.051	0.8
20091114 13:05	9.3	9.3	9.3	84	6.8	3	8	0	0.0	1012.6	192	0.000	0.9
20091114 13:10	9.4	9.4	9.4	82	6.5	3	6	338	0.0	1012.8	194	0.000	0.9
20091114 13:15	9.3	9.3	9.3	83	6.6	3	8	338	0.0	1012.7	235	0.000	1.0
20091114 13:20	9.4	9.4	9.4	83	6.6	2	6	338	0.0	1012.6	244	0.000	1.0
20091114 13:25	9.5	9.5	9.5	83	6.8	3	8	315	0.0	1012.7	232	0.000	0.9
20091114 13:30	9.6	9.6	9.6	82	6.6	3	10	315	0.0	1012.6	219	0.000	0.9
20091114 13:35	9.6	9.6	9.6	81	6.5	3	8	22	0.0	1012.4	219	0.000	0.9
20091114 13:40	9.5	9.5	9.5	82	6.6	2	6	22	0.0	1012.4	236	0.000	0.9
20091114 13:45	9.6	9.6	9.6	82	6.6	0	3	22	0.0	1012.5	242	0.000	0.9
20091114 13:50	9.7	9.7	9.7	81	6.6	0	2	22	0.0	1012.6	224	0.000	0.8
20091114 13:55	9.8	9.8	9.8	81	6.7	0	0	-100000	0.0	1012.6	198	0.000	0.7
20091114 14:00	9.9	9.9	9.9	81	6.8	0	2	22	0.0	1012.8	178	0.102	0.7
20091114 14:05	10.1	10.1	10.1	80	6.8	0	0	-100000	0.0	1012.7	158	0.000	0.7
20091114 14:10	10.2	10.2	10.2	80	6.9	2	5	22	0.0	1012.7	127	0.000	0.6
20091114 14:15	10.2	10.2	10.2	79	6.7	0	2	22	0.0	1012.7	105	0.000	0.5
20091114 14:20	10.2	10.2	10.2	79	6.7	2	5	22	0.0	1012.8	93	0.000	0.3
20091114 14:25	10.1	10.1	10.1	80	6.8	0	3	22	0.0	1012.8	90	0.000	0.0
20091114 14:30	10.1	10.1	10.1	81	6.9	2	6	22	0.0	1013.0	91	0.000	0.0
20091114 14:35	10.1	10.1	10.1	81	6.9	3	6	22	0.0	1013.1	89	0.000	0.0
20091114 14:40	10.0	10.0	10.0	80	6.7	3	5	22	0.0	1013.1	82	0.000	0.0
20091114 14:45	9.9	9.9	9.9	81	6.8	0	3	22	0.0	1013.1	69	0.000	0.0
20091114 14:50	9.9	9.9	9.9	80	6.6	0	3	22	0.0	1013.1	62	0.000	0.0
20091114 14:55	9.8	9.8	9.8	81	6.7	0	2	22	0.0	1013.2	63	0.000	0.0
20091114 15:00	9.8	9.8	9.8	81	6.7	0	3	22	0.0	1013.3	70	0.051	0.0
20091114 15:05	9.9	9.9	9.9	81	6.8	0	3	22	0.0	1013.2	82	0.000	0.0
20091114 15:10	9.9	9.9	9.9	81	6.8	2	5	22	0.0	1013.2	84	0.000	0.0
20091114 15:15	9.9	9.9	9.9	81	6.8	0	3	22	0.0	1013.1	84	0.000	0.0
20091114 15:20	10.0	10.0	10.0	81	6.9	2	5	22	0.0	1013.0	86	0.000	0.0
20091114 15:25	10.1	10.1	10.1	81	6.9	3	6	22	0.0	1013.0	59	0.000	0.0
20091114 15:30	10.1	10.1	10.1	81	6.9	3	6	158	0.0	1013.1	38	0.000	0.0
20091114 15:35	10.1	10.1	10.1	81	6.9	3	6	202	0.0	1013.1	42	0.000	0.0
20091114 15:40	10.0	10.0	10.0	81	6.9	5	8	202	0.0	1013.3	45	0.000	0.0
20091114 15:45	10.1	10.1	10.1	81	6.9	6	10	202	0.0	1013.4	35	0.000	0.0
20091114 15:50	10.1	10.1	10.1	81	6.9	6	10	202	0.0	1013.5	22	0.000	0.0
20091114 15:55	10.1	10.1	10.1	81	6.9	5	10	202	0.0	1013.4	16	0.000	0.0
20091114 16:00	10.0	10.0	10.0	81	6.9	3	6	202	0.0	1013.3	12	0.025	0.0
20091114 16:05	10.0	10.0	10.0	82	7.1	2	6	202	0.0	1013.3	11	0.000	0.0
20091114 16:10	9.9	9.9	9.9	82	7.0	3	8	202	0.0	1013.3	11	0.000	0.0
20091114 16:15	9.8	9.8	9.8	82	6.9	3	6	202	0.0	1013.4	11	0.000	0.0
20091114 16:20	9.8	9.8	9.8	81	6.7	3	8	202	0.0	1013.4	8	0.000	0.0
20091114 16:25	9.8	9.8	9.8	81	6.7	3	6	180	0.0	1013.4	2	0.000	0.0
20091114 16:30	9.8	9.8	9.8	81	6.7	5	8	202	0.0	1013.3	0	0.000	0.0
20091114 16:35	9.8	9.8	9.8	81	6.7	3	8	202	0.0	1013.3	0	0.000	0.0
20091114 16:40	9.8	9.8	9.8	81	6.7	3	6	202	0.0	1013.4	0	0.000	0.0
20091114 16:45	9.8	9.8	9.8	80	6.5	3	6	202	0.0	1013.3	0	0.000	0.0
20091114 16:50	9.7	9.1	9.7	80	6.4	6	10	202	0.0	1013.2	0	0.000	0.0
20091114 16:55	9.7	9.7	9.7	79	6.2	5	8	158	0.0	1013.1	0	0.000	0.0
20091114 17:00	9.6	9.6	9.6	79	6.1	3	6	158	0.0	1013.2	0	0.000	0.0
20091114 17:05	9.5	9.5	9.5	79	6.0	5	8	158	0.0	1013.4	0	0.000	0.0
20091114 17:10	9.4	9.4	9.4	79	6.0	3	8	180	0.0	1013.4	0	0.000	0.0
20091114 17:15	9.4	9.4	9.4	78	5.8	5	8	180	0.0	1013.5	0	0.000	0.0
20091114 17:20	9.5	9.5	9.5	78	5.9	3	10	180	0.0	1013.5	0	0.000	0.0
20091114 17:25	9.4	9.4	9.4	77	5.6	5	8	180	0.0	1013.6	0	0.000	0.0
20091114 17:30	9.4	9.4	9.4	77	5.6	5	8	180	0.0	1013.6	0	0.000	0.0
20091114 17:35	9.4	9.4	9.4	77	5.6	3	6	180	0.0	1013.7	0	0.000	0.0
20091114 17:40	9.4	9.4	9.4	77	5.6	3	8	202	0.0	1013.8	0	0.000	0.0
20091114 17:45	9.3	9.3	9.3	77	5.5	2	5	202	0.0	1013.9	0	0.000	0.0
20091114 17:50	9.3	9.3	9.3	77	5.5	2	3	202	0.0	1014.0	0	0.000	0.0
20091114 17:55	9.2	9.2	9.2	78	5.5	0	3	202	0.0	1014.1	0	0.000	0.0
20091114 18:00	9.0	9.0	9.0	79	5.6	0	0	-100000	0.0	1014.0	0	0.025	0.0
20091114 18:05	8.7	8.7	8.7	79	5.3	0	2	202	0.0	1013.9	0	0.000	0.0
20091114 18:10	8.5	8.5	8.5	81	5.4	0	0	-100000	0.0	1014.2	0	0.000	0.0
20091114 18:15	8.3	8.3	8.3	81	5.2	0	0	-100000	0.0	1014.3	0	0.000	0.0
20091114 18:20	8.1	8.1	8.1	82	5.2	0	0	-100000	0.0	1014.5	0	0.000	0.0
20091114 18:25	8.0	8.0	8.0	83	5.3	0	0	-100000	0.0	1014.6	0	0.000	0.0
20091114 18:30	7.9	7.9	7.9	83	5.2	0	0	-100000	0.0	1014.8	0	0.000	0.0
20091114 18:35	7.7	7.7	7.7	83	5.0	0	0	-100000	0.0	1014.8	0	0.000	0.0
20091114 18:40	7.6	7.6	7.6	84	5.0	0	0	-100000	0.0	1014.8	0	0.000	0.0
20091114 18:45	7.4	7.4	7.4	84	4.9	0	2	202	0.0	1015.0	0	0.000	0.0
20091114 18:50	7.3	7.3	7.3	84	4.8	0	3	202	0.0	1014.9	0	0.000	0.0
20091114 18:55	7.2	7.2	7.2	85	4.9	0	0	-100000	0.0	1014.9	0	0.000	0.0
20091114 19:00	7.2	7.2	7.2	85	4.8	0	3	202	0.0	1014.9	0	0.000	0.0
20091114 19:05	7.1	7.1	7.1	86	4.9	0	2	202	0.0	1015.0	0	0.000	0.0
20091114 19:10	6.9	6.9	6.9	86	4.8	2	3	202	0.0	1015.0	0	0.000	0.0
20091114 19:15	6.8	6.8	6.8	86	4.7	0	3	202	0.0	1015.1	0	0.000	0.0
20091114 19:20	6.7	6.7	6.7	86	4.5	0	3	202	0.0	1015.0	0	0.000	0.0
20091114 19:25	6.6	6.6	6.6	86	4.4	3	5	202	0.0	1015.0	0	0.000	0.0
20091114 19:30	6.6	6.6	6.6	87	4.5	3	5	202	0.0	1015.2	0	0.000	0.0
20091114 19:35	6.6	6.6	6.6	87	4.5	3	5	202	0.0	1015.3	0	0.000	0.0
20091114 19:40	6.7	6.7	6.7	87	4.7	3	5	202	0.0	1015.3	0	0.000	0.0
20091114 19:45	6.9	6.9	6.9	87	4.9	3	6	202	0.0	1015.2	0	0.000	0.0
20091114 19:50	7.2	7.2	7.2	86	5.0	3	5	202	0.0	1015.3	0	0.000	0.0
20091114 19:55	7.2	7.2	7.2	86	5.0	3	6	202	0.0	1015.3	0	0.000	0.0
20091114 20:00	7.3	7.3	7.3	86	5.1	5	8	202	0.0	1015.4	0	0.000	0.0
20091114 20:05	7.4	7.4	7.4	85	5.0	5	8	202	0.0	1015.3	0	0.000	0.0
20091114 20:10	7.5	7.5	7.5	89	5.8	5	10	202	0.0	1015.6	0	0.000	0.0
20091114 20:15	7.6	7.6	7.6	84	5.1	5	8	225	0.0	1015.8	0	0.000	0.0
20091114 20:20	7.6	7.6	7.6	84	5.1	5	6	225	0.0	1015.9	0	0.000	0.0
20091114 20:25	7.7	7.7	7.7	84	5.1	5	8	225	0.0	1016.0	0	0.000	0.0
20091114 20:30	7.7	6.7	7.7	84	5.2	6	11	270	0.0	1016.2	0	0.000	0.0
20091114 20:35	7.9	7.0	7.9	84	5.4	6	10	270	0.0	1016.4	0	0.000	0.0
20091114 20:40	8.2	7.3	8.2	83	5.5	6	14	270	0.0	1016.4	0	0.000	0.0
20091114 20:45	8.6	7.8	8.6	81	5.5	6	14	270	0.0	1016.5	0	0.000	0.0
20091114 20:50	8.9	7.7	8.9	81	5.8	8	19	270	0.0	1016.6	0	0.000	0.0
20091114 20:55	9.1	7.9	9.1	81	6.0	8	16	270	0.0	1016.7	0	0.000	0.0
20091114 21:00	9.2	8.0	9.2	81	6.1	8	14	270	0.0	1016.8	0	0.025	0.0
20091114 21:05	9.1	8.3	9.1	82	6.2	6	14	270	0.0	1016.5	0	0.000	0.0
20091114 21:10	9.0	7.8	9.0	83	6.3	8	16	270	0.2	1016.7	0	0.000	0.0
20091114 21:15	9.0	7.8	9.0	84	6.4	8	16	270	0.0	1016.8	0	0.000	0.0
20091114 21:20	9.0	7.5	9.0	89	7.3	10	18	270	0.0	1016.9	0	0.000	0.0
20091114 21:25	9.1	7.1	9.1	85	6.7	13	24	292	0.2	1017.1	0	0.000	0.0
20091114 21:30	9.1	6.5	9.1	85	6.7	18	26	270	0.0	1017.4	0	0.000	0.0
20091114 21:35	9.2	6.8	9.2	85	6.8	16	29	292	0.0	1017.5	0	0.000	0.0
20091114 21:40	9.1	6.9	9.1	86	6.9	14	24	292	0.0	1017.7	0	0.000	0.0
20091114 21:45	9.0	6.8	9.0	87	7.0	14	23	292	0.2	1017.9	0	0.000	0.0
20091114 21:50	8.9	7.4	8.9	87	6.8	10	21	292	0.0	1018.0	0	0.000	0.0
20091114 21:55	8.7	7.2	8.7	88	6.8	10	19	292	0.0	1018.1	0	0.000	0.0
20091114 22:00	8.6	7.0	8.6	89	6.8	10	18	292	0.2	1018.3	0	0.025	0.0
20091114 22:05	8.4	7.2	8.4	89	6.7	8	13	270	0.0	1018.2	0	0.000	0.0
20091114 22:10	8.4	7.1	8.4	90	6.8	8	16	270	0.0	1018.3	0	0.000	0.0
20091114 22:15	8.3	7.1	8.3	90	6.8	8	18	270	0.2	1018.2	0	0.000	0.0
20091114 22:20	8.3	6.7	8.3	90	6.8	10	19	270	0.0	1018.2	0	0.000	0.0
20091114 22:25	8.3	7.0	8.3	89	6.6	8	18	270	0.2	1018.2	0	0.000	0.0
20091114 22:30	8.3	7.0	8.3	89	6.6	8	18	270	0.0	1018.1	0	0.000	0.0
20091114 22:35	8.2	6.9	8.2	89	6.5	8	18	270	0.0	1018.0	0	0.000	0.0
20091114 22:40	8.2	7.3	8.2	89	6.5	6	11	270	0.0	1017.9	0	0.000	0.0
20091114 22:45	8.2	7.3	8.2	89	6.5	6	10	248	0.0	1017.9	0	0.000	0.0
20091114 22:50	8.2	8.2	8.2	89	6.5	5	8	225	0.0	1017.9	0	0.000	0.0
20091114 22:55	8.1	7.2	8.1	89	6.4	6	10	225	0.0	1017.8	0	0.000	0.0
20091114 23:00	8.1	7.2	8.1	89	6.4	6	10	225	0.0	1017.8	0	0.000	0.0
20091114 23:05	8.1	8.1	8.1	89	6.4	3	6	225	0.0	1017.7	0	0.000	0.0
20091114 23:10	8.0	8.0	8.0	90	6.5	3	8	225	0.0	1017.8	0	0.000	0.0
20091114 23:15	8.0	8.0	8.0	90	6.5	3	8	225	0.0	1017.9	0	0.000	0.0
20091114 23:20	7.9	7.9	7.9	90	6.4	3	6	225	0.0	1017.9	0	0.000	0.0
20091114 23:25	7.9	7.9	7.9	90	6.4	3	6	225	0.0	1017.9	0	0.000	0.0
20091114 23:30	7.9	7.9	7.9	90	6.4	3	8	225	0.0	1017.9	0	0.000	0.0
20091114 23:35	7.8	7.8	7.8	90	6.3	5	10	225	0.0	1017.9	0	0.000	0.0
20091114 23:40	7.8	6.9	7.8	90	6.3	6	11	180	0.0	1017.7	0	0.000	0.0
20091114 23:45	7.8	6.9	7.8	91	6.5	6	14	180	0.0	1017.5	0	0.000	0.0
20091114 23:50	7.8	6.4	7.8	91	6.4	8	13	180	0.0	1017.2	0	0.000	0.0
20091114 23:55	7.8	6.1	7.8	91	6.4	10	18	180	0.0	1017.1	0	0.000	0.0



Please note the license to use and transfer of this data:
http://creativecommons.org/licenses/by-nc-sa/3.0/deed.en

Bitte beachten sie die Lizenz zur Verwertung und Weitergabe der Daten:
http://creativecommons.org/licenses/by-nc-sa/3.0/deed.de

zurück zur Übersicht der Archivdaten (Monats und Tagesdaten)

Cookies helfen bei der Bereitstellung von Inhalten. Durch die Nutzung dieser Seiten erklärst du dich damit einverstanden, dass Cookies auf deinem Rechner gespeichert werden. Weitere Information